Time;durP1;ratioP1;P1;durP2;ratioP2;P2;SDS_P1;SDS_P2;PMS_P1;PMS_P2;Temp;Humidity;BMP_temperature;BMP_pressure;BME280_temperature;BME280_humidity;BME280_pressure;Samples;Min_cycle;Max_cycle;Signal;HPM_P1;HPM_P2
2021/10/25 00:00:20;;;;;;;4.67;3.10;;;8.80;1.00;;;;;;5101437;28;20471;-58
2021/10/25 00:02:46;;;;;;;5.30;3.03;;;8.80;1.00;;;;;;5096289;28;20475;-59
2021/10/25 00:05:11;;;;;;;7.60;3.00;;;8.70;1.00;;;;;;5103298;28;20186;-58
2021/10/25 00:07:37;;;;;;;3.67;2.70;;;8.50;1.00;;;;;;5101340;28;20191;-58
2021/10/25 00:10:04;;;;;;;4.97;3.30;;;8.80;1.00;;;;;;5101027;28;20637;-58
2021/10/25 00:12:30;;;;;;;5.90;3.30;;;;;;;;;;5096768;28;20327;-59
2021/10/25 00:14:56;;;;;;;6.83;3.70;;;9.00;1.00;;;;;;5093453;28;20930;-57
2021/10/25 00:17:21;;;;;;;4.83;3.70;;;8.60;1.00;;;;;;5076950;28;20502;-58
2021/10/25 00:19:47;;;;;;;5.13;3.70;;;8.60;1.00;;;;;;5096884;28;20187;-58
2021/10/25 00:22:13;;;;;;;4.13;3.17;;;;;;;;;;5103033;28;20179;-58
2021/10/25 00:24:39;;;;;;;7.83;3.00;;;;;;;;;;5106514;28;20183;-57
2021/10/25 00:27:05;;;;;;;8.27;3.63;;;;;;;;;;5103577;28;20446;-59
2021/10/25 00:29:32;;;;;;;5.97;3.20;;;;;;;;;;5109084;28;20543;-57
2021/10/25 00:31:58;;;;;;;6.77;3.30;;;;;;;;;;5097830;28;20448;-57
2021/10/25 00:34:24;;;;;;;10.37;4.23;;;;;;;;;;5104254;28;20958;-58
2021/10/25 00:36:50;;;;;;;9.13;3.63;;;8.30;1.00;;;;;;5107049;28;20945;-57
2021/10/25 00:39:15;;;;;;;4.97;3.13;;;8.30;1.00;;;;;;5102434;28;20449;-57
2021/10/25 00:41:41;;;;;;;5.33;3.30;;;8.50;1.00;;;;;;5099618;28;20453;-58
2021/10/25 00:44:07;;;;;;;8.50;3.80;;;;;;;;;;5101365;28;20189;-57
2021/10/25 00:46:33;;;;;;;8.17;3.90;;;8.40;1.00;;;;;;5103539;28;20249;-58
2021/10/25 00:48:59;;;;;;;4.07;3.00;;;;;;;;;;5111067;28;20956;-59
2021/10/25 00:51:25;;;;;;;4.53;3.60;;;8.50;1.00;;;;;;5108931;28;20797;-58
2021/10/25 00:53:51;;;;;;;6.27;3.20;;;;;;;;;;5100009;28;20449;-58
2021/10/25 00:56:17;;;;;;;5.30;3.50;;;8.60;1.00;;;;;;5096661;28;20472;-58
2021/10/25 00:58:43;;;;;;;5.47;3.77;;;8.20;1.00;;;;;;5107757;28;20540;-58
2021/10/25 01:01:09;;;;;;;5.20;3.40;;;8.30;1.00;;;;;;5107005;28;20637;-58
2021/10/25 01:03:35;;;;;;;8.47;3.87;;;;;;;;;;5098680;28;20440;-57
2021/10/25 01:06:01;;;;;;;5.07;3.47;;;8.30;1.00;;;;;;5099817;28;20211;-57
2021/10/25 01:08:34;;;;;;;4.73;3.27;;;8.50;1.00;;;;;;5098834;28;20523;-57
2021/10/25 01:11:00;;;;;;;7.47;3.70;;;;;;;;;;5096651;28;20460;-58
2021/10/25 01:13:26;;;;;;;4.60;3.23;;;8.30;1.00;;;;;;5108073;28;20530;-58
2021/10/25 01:15:52;;;;;;;4.93;3.30;;;8.30;1.00;;;;;;5108803;28;20448;-57
2021/10/25 01:18:18;;;;;;;7.57;3.40;;;;;;;;;;5101062;28;20993;-57
2021/10/25 01:20:44;;;;;;;6.73;4.07;;;;;;;;;;5097848;28;20218;-57
2021/10/25 01:23:09;;;;;;;6.33;3.63;;;8.50;1.00;;;;;;5112202;28;20503;-58
2021/10/25 01:25:36;;;;;;;10.87;4.70;;;;;;;;;;5102586;28;20477;-57
2021/10/25 01:28:01;;;;;;;5.20;3.43;;;8.30;1.00;;;;;;5106915;28;20191;-57
2021/10/25 01:30:28;;;;;;;5.40;3.07;;;8.30;1.00;;;;;;5098005;28;20809;-58
2021/10/25 01:32:54;;;;;;;5.77;3.23;;;8.30;1.00;;;;;;5106818;28;20186;-58
2021/10/25 01:35:20;;;;;;;5.13;3.70;;;8.40;1.00;;;;;;5101561;28;20437;-58
2021/10/25 01:37:46;;;;;;;5.13;3.60;;;8.20;1.00;;;;;;5105113;28;20589;-57
2021/10/25 01:40:13;;;;;;;8.30;3.20;;;8.00;1.00;;;;;;5104838;28;20542;-57
2021/10/25 01:42:39;;;;;;;7.00;3.80;;;;;;;;;;5108560;28;20527;-58
2021/10/25 01:45:06;;;;;;;5.67;3.40;;;8.00;1.00;;;;;;5098798;28;20440;-57
2021/10/25 01:47:33;;;;;;;5.00;3.93;;;8.20;1.00;;;;;;5102559;28;20981;-58
2021/10/25 01:50:00;;;;;;;9.03;3.90;;;7.90;1.00;;;;;;5104924;28;20448;-57
2021/10/25 01:52:25;;;;;;;5.00;3.40;;;7.80;1.00;;;;;;5090898;28;20483;-57
2021/10/25 01:54:51;;;;;;;8.90;3.57;;;;;;;;;;5084575;28;20488;-58
2021/10/25 01:57:17;;;;;;;6.77;3.70;;;;;;;;;;5104230;28;20255;-58
2021/10/25 01:59:43;;;;;;;5.90;3.23;;;8.10;1.00;;;;;;5108375;28;20456;-57
2021/10/25 02:02:08;;;;;;;5.90;3.70;;;7.80;1.00;;;;;;5105105;28;20518;-57
2021/10/25 02:04:34;;;;;;;8.73;3.60;;;;;;;;;;5099962;28;20708;-57
2021/10/25 02:07:00;;;;;;;6.50;4.37;;;8.00;1.00;;;;;;5106556;28;22100;-58
2021/10/25 02:09:26;;;;;;;9.40;4.37;;;8.00;1.00;;;;;;5104503;28;20487;-58
2021/10/25 02:11:51;;;;;;;6.00;3.93;;;8.00;1.00;;;;;;5102409;28;20509;-58
2021/10/25 02:14:17;;;;;;;4.20;3.57;;;;;;;;;;5105472;28;20202;-57
2021/10/25 02:16:43;;;;;;;6.10;4.17;;;8.10;1.00;;;;;;5100804;28;20197;-58
2021/10/25 02:19:09;;;;;;;5.43;4.13;;;8.00;1.00;;;;;;5105962;28;20448;-58
2021/10/25 02:21:35;;;;;;;6.07;3.43;;;8.00;1.00;;;;;;5095025;28;20224;-57
2021/10/25 02:24:01;;;;;;;3.83;3.40;;;7.90;1.00;;;;;;5093146;28;20945;-58
2021/10/25 02:26:27;;;;;;;4.60;3.40;;;;;;;;;;5098505;28;20455;-57
2021/10/25 02:28:54;;;;;;;10.57;4.10;;;;;;;;;;5096264;28;20946;-58
2021/10/25 02:31:19;;;;;;;7.50;4.07;;;8.00;1.00;;;;;;5098205;28;20844;-58
2021/10/25 02:33:45;;;;;;;5.57;2.87;;;;;;;;;;5102151;28;20478;-58
2021/10/25 02:36:11;;;;;;;5.10;3.77;;;;;;;;;;5105358;28;20186;-57
2021/10/25 02:38:38;;;;;;;5.17;3.17;;;8.00;1.00;;;;;;5100309;28;20468;-57
2021/10/25 02:41:05;;;;;;;3.97;3.60;;;7.70;1.00;;;;;;5095917;28;20927;-58
2021/10/25 02:43:31;;;;;;;8.10;3.90;;;7.90;1.00;;;;;;5108670;28;20975;-57
2021/10/25 02:45:57;;;;;;;6.13;3.67;;;7.90;1.00;;;;;;5105057;28;20432;-57
2021/10/25 02:48:25;;;;;;;7.10;4.07;;;;;;;;;;5104942;28;20194;-57
2021/10/25 02:50:52;;;;;;;6.60;3.83;;;8.50;1.00;;;;;;5101720;28;20705;-57
2021/10/25 02:53:18;;;;;;;6.77;3.40;;;7.80;1.00;;;;;;5105336;28;20452;-57
2021/10/25 02:55:44;;;;;;;12.37;3.60;;;7.80;1.00;;;;;;5099247;28;20486;-57
2021/10/25 02:58:13;;;;;;;4.07;3.67;;;7.90;1.00;;;;;;5101277;28;20815;-57
2021/10/25 03:00:39;;;;;;;5.53;3.27;;;;;;;;;;5093951;28;20183;-57
2021/10/25 03:03:05;;;;;;;4.80;3.20;;;8.00;1.00;;;;;;5085916;28;20474;-57
2021/10/25 03:05:31;;;;;;;5.90;3.53;;;;;;;;;;5097312;28;20497;-59
2021/10/25 03:07:56;;;;;;;3.27;2.90;;;8.00;1.00;;;;;;5109447;28;20193;-58
2021/10/25 03:10:22;;;;;;;6.63;3.60;;;;;;;;;;5088050;28;20436;-58
2021/10/25 03:12:48;;;;;;;9.57;3.43;;;8.30;1.00;;;;;;5103423;28;20535;-56
2021/10/25 03:15:14;;;;;;;6.00;3.90;;;7.90;1.00;;;;;;5110312;28;20571;-57
2021/10/25 03:17:40;;;;;;;3.90;2.93;;;7.70;1.00;;;;;;5101891;28;20639;-58
2021/10/25 03:20:06;;;;;;;6.50;2.83;;;;;;;;;;5098424;28;20547;-58
2021/10/25 03:22:32;;;;;;;6.30;3.80;;;;;;;;;;5093533;28;20274;-57
2021/10/25 03:24:58;;;;;;;5.00;3.50;;;;;;;;;;5093032;28;20528;-57
2021/10/25 03:27:26;;;;;;;5.63;3.63;;;7.90;1.00;;;;;;5094049;28;20451;-57
2021/10/25 03:29:52;;;;;;;3.30;3.00;;;8.00;1.00;;;;;;5105040;28;20543;-57
2021/10/25 03:32:18;;;;;;;4.80;3.30;;;8.00;1.00;;;;;;5103434;28;20546;-58
2021/10/25 03:34:43;;;;;;;6.83;3.50;;;;;;;;;;5104586;28;20187;-58
2021/10/25 03:37:10;;;;;;;6.03;3.40;;;;;;;;;;5105911;28;20217;-58
2021/10/25 03:39:38;;;;;;;4.30;3.17;;;8.10;1.00;;;;;;5110770;28;20966;-58
2021/10/25 03:42:10;;;;;;;9.17;3.53;;;7.90;1.00;;;;;;5099094;28;20799;-57
2021/10/25 03:44:45;;;;;;;4.67;3.40;;;7.70;1.00;;;;;;5095604;28;20444;-58
2021/10/25 03:47:34;;;;;;;5.97;3.53;;;7.70;1.00;;;;;;5110919;28;20475;-58
2021/10/25 03:50:12;;;;;;;5.80;3.50;;;;;;;;;;5110036;28;20568;-57
2021/10/25 03:52:49;;;;;;;5.20;3.17;;;7.90;1.00;;;;;;5100584;28;20495;-58
2021/10/25 03:55:35;;;;;;;5.17;3.37;;;7.60;1.00;;;;;;5086052;28;20501;-58
2021/10/25 04:27:46;;;;;;;5.73;3.50;;;;;;;;;;5097709;28;20451;-61
2021/10/25 04:30:13;;;;;;;6.23;4.03;;;7.70;1.00;;;;;;5096874;28;20441;-58
2021/10/25 04:32:38;;;;;;;6.13;4.20;;;7.80;1.00;;;;;;5099330;28;20440;-59
2021/10/25 04:35:05;;;;;;;4.40;3.43;;;7.60;1.00;;;;;;5112513;28;20770;-58
2021/10/25 04:37:30;;;;;;;6.90;3.73;;;7.70;1.00;;;;;;5105843;28;20234;-58
2021/10/25 04:39:56;;;;;;;5.13;3.60;;;;;;;;;;5100625;28;20517;-57
2021/10/25 04:42:22;;;;;;;4.90;3.90;;;7.30;1.00;;;;;;5111339;28;20277;-58
2021/10/25 04:44:48;;;;;;;5.60;3.80;;;7.50;1.00;;;;;;5103660;28;20441;-57
2021/10/25 04:47:14;;;;;;;5.80;3.73;;;7.40;1.00;;;;;;5096635;28;20233;-56
2021/10/25 04:49:41;;;;;;;6.17;3.93;;;7.40;1.00;;;;;;5099247;28;20888;-58
2021/10/25 04:52:08;;;;;;;6.30;3.93;;;;;;;;;;5101315;28;20536;-58
2021/10/25 04:54:34;;;;;;;6.17;4.23;;;7.10;1.00;;;;;;5099245;28;20450;-58
2021/10/25 04:56:59;;;;;;;7.17;3.97;;;7.30;1.00;;;;;;5097223;28;20468;-57
2021/10/25 04:59:26;;;;;;;6.17;4.17;;;;;;;;;;5095578;28;20174;-58
2021/10/25 05:01:51;;;;;;;5.43;3.50;;;7.30;1.00;;;;;;5099739;28;20182;-57
2021/10/25 05:04:17;;;;;;;4.50;3.50;;;7.20;1.00;;;;;;5107978;28;20485;-57
2021/10/25 05:06:43;;;;;;;6.97;4.10;;;;;;;;;;5102902;28;20455;-58
2021/10/25 05:09:09;;;;;;;14.03;4.20;;;;;;;;;;5099536;28;20621;-57
2021/10/25 05:11:35;;;;;;;11.57;4.70;;;;;;;;;;5103900;28;20445;-58
2021/10/25 05:14:01;;;;;;;7.50;4.60;;;7.10;1.00;;;;;;5101054;28;20452;-58
2021/10/25 05:16:27;;;;;;;8.77;5.10;;;;;;;;;;5077825;28;20855;-58
2021/10/25 05:18:53;;;;;;;6.50;4.40;;;7.10;1.00;;;;;;5095915;28;20530;-58
2021/10/25 05:21:19;;;;;;;5.80;4.53;;;;;;;;;;5096164;28;20441;-58
2021/10/25 05:23:45;;;;;;;6.33;4.17;;;7.10;1.00;;;;;;5093572;28;20179;-57
2021/10/25 05:26:10;;;;;;;6.60;4.13;;;7.00;1.00;;;;;;5098133;28;20799;-58
2021/10/25 05:28:36;;;;;;;7.93;4.57;;;7.20;1.00;;;;;;5092183;28;20198;-57
2021/10/25 05:31:02;;;;;;;5.87;3.90;;;7.00;1.00;;;;;;5084161;28;20638;-58
2021/10/25 05:33:28;;;;;;;10.67;5.07;;;;;;;;;;5098039;28;20191;-58
2021/10/25 05:35:54;;;;;;;5.10;4.47;;;6.90;1.00;;;;;;5101359;28;20448;-59
2021/10/25 05:38:20;;;;;;;6.10;4.30;;;;;;;;;;5099832;28;20471;-58
2021/10/25 05:40:46;;;;;;;5.00;4.50;;;;;;;;;;5100256;28;20445;-57
2021/10/25 05:43:12;;;;;;;7.73;5.00;;;7.10;1.00;;;;;;5108573;28;20440;-57
2021/10/25 05:45:38;;;;;;;8.27;4.80;;;;;;;;;;5104043;28;20446;-58
2021/10/25 05:48:04;;;;;;;6.03;4.03;;;6.90;1.00;;;;;;5076052;28;20246;-58
2021/10/25 05:50:31;;;;;;;4.87;3.87;;;;;;;;;;5075417;28;20454;-59
2021/10/25 05:52:58;;;;;;;5.80;4.63;;;7.10;1.00;;;;;;5075032;28;20455;-59
2021/10/25 05:55:24;;;;;;;7.63;5.00;;;;;;;;;;5092928;28;21036;-59
2021/10/25 05:57:52;;;;;;;6.90;5.50;;;7.00;1.00;;;;;;5108778;28;20472;-58
2021/10/25 06:00:26;;;;;;;4.23;3.77;;;7.10;1.00;;;;;;5093089;28;20441;-58
2021/10/25 06:02:53;;;;;;;8.70;4.70;;;7.10;1.00;;;;;;5096977;28;20464;-58
2021/10/25 06:05:20;;;;;;;5.90;5.00;;;7.10;1.00;;;;;;5091439;28;20957;-58
2021/10/25 06:07:47;;;;;;;7.50;4.10;;;6.80;1.00;;;;;;5110965;28;20515;-57
2021/10/25 06:10:14;;;;;;;9.10;5.20;;;7.10;1.00;;;;;;5103973;28;20441;-58
2021/10/25 06:12:43;;;;;;;7.00;4.90;;;;;;;;;;5097015;28;20440;-60
2021/10/25 06:15:25;;;;;;;7.93;5.63;;;7.20;1.00;;;;;;5106985;28;20565;-58
2021/10/25 06:17:53;;;;;;;6.40;4.43;;;;;;;;;;5100158;28;20465;-59
2021/10/25 06:20:22;;;;;;;9.10;4.87;;;7.20;1.00;;;;;;5102759;28;20428;-57
2021/10/25 06:22:48;;;;;;;7.93;4.87;;;7.10;1.00;;;;;;5099418;28;20428;-57
2021/10/25 06:25:14;;;;;;;5.90;4.73;;;7.00;1.00;;;;;;5091853;28;20434;-59
2021/10/25 06:27:41;;;;;;;14.10;5.40;;;7.20;1.00;;;;;;5096229;28;20935;-59
2021/10/25 06:30:08;;;;;;;7.23;4.33;;;7.20;1.00;;;;;;5095984;28;20448;-59
2021/10/25 06:32:33;;;;;;;9.77;4.80;;;;;;;;;;5078046;28;20466;-58
2021/10/25 06:35:03;;;;;;;7.47;3.90;;;;;;;;;;5109245;28;20427;-57
2021/10/25 06:37:38;;;;;;;8.20;5.70;;;;;;;;;;5080010;28;21098;-58
2021/10/25 06:40:06;;;;;;;9.33;5.37;;;;;;;;;;5105089;28;20442;-59
2021/10/25 06:42:32;;;;;;;8.07;5.20;;;7.40;1.00;;;;;;5104528;28;20910;-59
2021/10/25 06:45:00;;;;;;;8.20;4.60;;;7.30;1.00;;;;;;5095518;28;20451;-58
2021/10/25 06:47:26;;;;;;;5.90;4.90;;;;;;;;;;5105320;28;20214;-58
2021/10/25 06:49:52;;;;;;;6.60;5.10;;;7.50;1.00;;;;;;5110618;28;20440;-58
2021/10/25 06:52:18;;;;;;;8.90;5.13;;;;;;;;;;5084990;28;20476;-58
2021/10/25 06:54:44;;;;;;;10.60;5.10;;;;;;;;;;5096193;28;20590;-60
2021/10/25 06:57:10;;;;;;;4.77;4.30;;;7.70;1.00;;;;;;5104021;28;20475;-57
2021/10/25 06:59:36;;;;;;;7.87;5.67;;;;;;;;;;5094327;28;20448;-60
2021/10/25 07:02:02;;;;;;;9.23;5.07;;;;;;;;;;5089480;28;20237;-59
2021/10/25 07:04:28;;;;;;;7.10;4.73;;;7.60;1.00;;;;;;5101462;28;20440;-58
2021/10/25 07:06:56;;;;;;;6.13;4.87;;;;;;;;;;5110369;28;20418;-59
2021/10/25 07:09:21;;;;;;;7.00;4.93;;;7.90;1.00;;;;;;5101443;28;20444;-58
2021/10/25 07:11:47;;;;;;;8.10;5.17;;;;;;;;;;5093451;28;20449;-58
2021/10/25 07:14:16;;;;;;;6.93;5.50;;;;;;;;;;5098578;28;20193;-59
2021/10/25 07:16:49;;;;;;;7.27;4.67;;;7.90;1.00;;;;;;5102795;28;20928;-58
2021/10/25 07:22:15;;;;;;;5.67;4.60;;;;;;;;;;5100279;28;20448;-58
2021/10/25 08:00:52;;;;;;;7.40;4.70;;;;;;;;;;5090377;28;20528;-59
2021/10/25 08:03:41;;;;;;;5.27;4.43;;;;;;;;;;5089605;28;20479;-60
2021/10/25 08:06:21;;;;;;;6.53;5.07;;;;;;;;;;5089434;28;20487;-57
2021/10/25 08:09:04;;;;;;;6.50;4.70;;;;;;;;;;5092276;28;20456;-59
2021/10/25 08:11:34;;;;;;;7.53;4.87;;;;;;;;;;5101652;28;20440;-59
2021/10/25 08:14:05;;;;;;;8.10;5.53;;;;;;;;;;5109214;28;20436;-59
2021/10/25 08:16:43;;;;;;;5.00;4.50;;;;;;;;;;5103185;28;20540;-60
2021/10/25 08:19:14;;;;;;;6.20;4.80;;;9.70;1.00;;;;;;5092182;28;20479;-59
2021/10/25 08:21:40;;;;;;;6.00;5.13;;;;;;;;;;5095016;28;20423;-58
2021/10/25 08:24:06;;;;;;;6.50;4.43;;;10.00;1.00;;;;;;5092773;28;20458;-59
2021/10/25 08:26:32;;;;;;;7.03;4.37;;;;;;;;;;5097981;28;20565;-59
2021/10/25 08:29:00;;;;;;;6.37;4.80;;;;;;;;;;5113053;28;20199;-59
2021/10/25 08:31:27;;;;;;;4.27;3.80;;;;;;;;;;5106671;28;20456;-58
2021/10/25 08:39:51;;;;;;;10.80;5.17;;;10.50;1.00;;;;;;5095883;28;20442;-60
2021/10/25 08:42:23;;;;;;;8.87;5.00;;;10.60;1.00;;;;;;5095308;28;20448;-59
2021/10/25 08:44:59;;;;;;;8.13;4.83;;;10.60;1.00;;;;;;5080158;28;20803;-59
2021/10/25 08:47:35;;;;;;;6.17;4.63;;;10.70;1.00;;;;;;5110573;28;20471;-59
2021/10/25 08:50:03;;;;;;;7.20;4.67;;;10.80;1.00;;;;;;5100043;28;20451;-59
2021/10/25 08:52:30;;;;;;;6.17;5.57;;;;;;;;;;5096231;28;20441;-59
2021/10/25 08:54:55;;;;;;;5.50;4.13;;;;;;;;;;5095624;28;20452;-59
2021/10/25 08:57:23;;;;;;;8.77;4.70;;;10.80;1.00;;;;;;5100589;28;20482;-59
2021/10/25 09:00:05;;;;;;;5.93;4.47;;;10.80;1.00;;;;;;5107073;28;20438;-59
2021/10/25 09:02:31;;;;;;;5.77;4.00;;;;;;;;;;5103002;28;20445;-59
2021/10/25 09:05:10;;;;;;;10.37;4.50;;;11.10;1.00;;;;;;5092989;28;20445;-61
2021/10/25 09:07:49;;;;;;;8.83;5.20;;;11.30;1.00;;;;;;5100433;28;20449;-58
2021/10/25 09:10:31;;;;;;;6.50;4.23;;;11.60;1.00;;;;;;5103943;28;20437;-60
2021/10/25 09:13:00;;;;;;;5.80;4.37;;;11.60;1.00;;;;;;5094503;28;20472;-59
2021/10/25 09:15:27;;;;;;;11.03;4.90;;;11.90;1.00;;;;;;5094207;28;20850;-59
2021/10/25 09:17:53;;;;;;;8.93;4.60;;;;;;;;;;5074325;28;20461;-59
2021/10/25 09:20:20;;;;;;;10.10;4.40;;;13.00;1.00;;;;;;5101240;28;20415;-60
2021/10/25 09:22:46;;;;;;;7.57;4.57;;;13.20;1.00;;;;;;5112722;28;20834;-60
2021/10/25 09:25:13;;;;;;;8.87;4.77;;;;;;;;;;5094610;28;20846;-58
2021/10/25 09:27:45;;;;;;;8.33;4.77;;;13.20;1.00;;;;;;5075745;28;20453;-59
2021/10/25 09:30:15;;;;;;;6.20;4.87;;;12.80;1.00;;;;;;5096710;28;20449;-60
2021/10/25 09:32:42;;;;;;;10.43;4.87;;;12.70;1.00;;;;;;5097419;28;20462;-60
2021/10/25 09:35:26;;;;;;;6.53;4.87;;;12.50;1.00;;;;;;5096787;28;20870;-61
2021/10/25 09:37:58;;;;;;;6.50;4.40;;;12.50;1.00;;;;;;5093303;28;20472;-59
2021/10/25 09:40:49;;;;;;;7.43;3.90;;;12.30;1.00;;;;;;5099965;28;20424;-59
2021/10/25 09:46:34;;;;;;;6.30;4.63;;;12.70;1.00;;;;;;5065926;28;20437;-59
2021/10/25 09:49:10;;;;;;;6.30;4.73;;;12.50;1.00;;;;;;5110818;28;20452;-59
2021/10/25 09:51:38;;;;;;;5.73;3.80;;;12.70;1.00;;;;;;5100290;28;20449;-60
2021/10/25 09:54:04;;;;;;;5.97;4.00;;;12.40;1.00;;;;;;5091862;28;20512;-60
2021/10/25 09:56:33;;;;;;;7.20;4.83;;;12.40;1.00;;;;;;5100290;28;20464;-60
2021/10/25 10:01:42;;;;;;;9.00;4.53;;;;;;;;;;5093978;28;20411;-59
2021/10/25 10:04:09;;;;;;;9.70;4.40;;;;;;;;;;5110307;28;20797;-58
2021/10/25 10:06:36;;;;;;;8.90;4.60;;;12.30;1.00;;;;;;5105774;28;20442;-59
2021/10/25 10:09:02;;;;;;;6.60;4.60;;;12.10;1.00;;;;;;5100396;28;20510;-58
2021/10/25 10:11:28;;;;;;;6.63;4.27;;;12.40;1.00;;;;;;5097759;28;20456;-60
2021/10/25 10:13:54;;;;;;;14.23;6.10;;;12.40;1.00;;;;;;5110147;28;20432;-60
2021/10/25 10:16:20;;;;;;;6.50;4.30;;;;;;;;;;5110448;28;20415;-59
2021/10/25 10:18:52;;;;;;;5.50;4.80;;;12.70;1.00;;;;;;5097927;28;20275;-60
2021/10/25 10:21:18;;;;;;;5.20;3.97;;;12.60;1.00;;;;;;5111682;28;20766;-59
2021/10/25 10:23:53;;;;;;;8.93;4.57;;;13.10;1.00;;;;;;5098434;28;20433;-59
2021/10/25 10:26:19;;;;;;;6.47;3.80;;;13.00;1.00;;;;;;5092169;28;20436;-59
2021/10/25 10:28:51;;;;;;;6.40;4.43;;;13.30;1.00;;;;;;5091136;28;20450;-59
2021/10/25 10:31:21;;;;;;;5.90;4.30;;;13.30;1.00;;;;;;5102262;28;20198;-59
2021/10/25 10:33:53;;;;;;;5.77;4.47;;;13.40;1.00;;;;;;5111213;28;20439;-60
2021/10/25 10:36:22;;;;;;;8.97;5.00;;;13.50;1.00;;;;;;5094850;28;20851;-59
2021/10/25 10:38:52;;;;;;;6.27;5.70;;;13.60;1.00;;;;;;5090764;28;20939;-59
2021/10/25 10:41:19;;;;;;;7.03;4.80;;;;;;;;;;5099739;28;20858;-60
2021/10/25 10:44:12;;;;;;;6.97;4.70;;;13.50;1.00;;;;;;5085388;28;20433;-59
2021/10/25 10:46:55;;;;;;;5.60;4.13;;;13.10;1.00;;;;;;5075772;28;20472;-59
2021/10/25 10:49:37;;;;;;;5.70;4.60;;;13.30;1.00;;;;;;5108347;28;20543;-58
2021/10/25 10:52:30;;;;;;;8.10;4.03;;;13.20;1.00;;;;;;5098189;28;20411;-59
2021/10/25 10:55:09;;;;;;;7.70;5.53;;;13.30;1.00;;;;;;5110553;28;20762;-60
2021/10/25 11:00:31;;;;;;;7.60;5.03;;;13.50;1.00;;;;;;5101355;28;20464;-60
2021/10/25 11:03:04;;;;;;;5.33;4.10;;;13.50;1.00;;;;;;5096906;28;20441;-59
2021/10/25 11:05:51;;;;;;;6.33;4.40;;;13.60;1.00;;;;;;5095045;28;20993;-60
2021/10/25 11:08:24;;;;;;;12.03;4.40;;;13.90;1.00;;;;;;5093665;28;20832;-59
2021/10/25 11:10:57;;;;;;;5.13;4.40;;;14.20;1.00;;;;;;5093672;28;20446;-60
2021/10/25 11:13:24;;;;;;;6.60;4.73;;;;;;;;;;5090430;28;20831;-59
2021/10/25 11:16:07;;;;;;;7.60;4.00;;;14.40;1.00;;;;;;5095725;28;20447;-59
2021/10/25 11:18:38;;;;;;;8.07;4.40;;;14.80;1.00;;;;;;5097799;28;20950;-59
2021/10/25 11:21:16;;;;;;;12.37;6.47;;;14.70;1.00;;;;;;5087188;28;20460;-59
2021/10/25 11:23:43;;;;;;;6.63;4.70;;;15.00;1.00;;;;;;5110586;28;20448;-59
2021/10/25 11:26:14;;;;;;;6.90;4.80;;;14.90;1.00;;;;;;5110448;28;20835;-60
2021/10/25 11:28:57;;;;;;;9.53;4.87;;;14.70;1.00;;;;;;5110581;28;20444;-60
2021/10/25 11:31:23;;;;;;;5.83;4.53;;;14.50;1.00;;;;;;5110535;28;20442;-62
2021/10/25 11:33:49;;;;;;;6.27;4.57;;;;;;;;;;5110503;28;20467;-60
2021/10/25 11:36:17;;;;;;;7.03;4.30;;;14.50;1.00;;;;;;5110587;28;20909;-60
2021/10/25 11:38:43;;;;;;;7.33;4.90;;;14.60;1.00;;;;;;5110412;28;20509;-60
2021/10/25 11:41:09;;;;;;;5.90;4.33;;;;;;;;;;5110784;28;20524;-60
2021/10/25 11:43:35;;;;;;;5.87;4.87;;;14.20;1.00;;;;;;5110412;28;20527;-59
2021/10/25 11:46:01;;;;;;;5.57;4.10;;;14.10;1.00;;;;;;5110349;28;20407;-59
2021/10/25 11:48:30;;;;;;;7.13;4.93;;;14.40;1.00;;;;;;5108413;28;20879;-59
2021/10/25 11:51:01;;;;;;;8.27;4.73;;;14.10;1.00;;;;;;5110501;28;20245;-60
2021/10/25 11:53:28;;;;;;;5.93;4.50;;;14.40;1.00;;;;;;5110344;28;20926;-60
2021/10/25 11:55:54;;;;;;;10.70;5.80;;;;;;;;;;5110487;28;20456;-59
2021/10/25 11:58:23;;;;;;;6.43;5.20;;;;;;;;;;5110238;28;20480;-60
2021/10/25 12:00:49;;;;;;;7.70;5.70;;;;;;;;;;5114162;28;20417;-59
2021/10/25 12:03:17;;;;;;;7.67;5.70;;;14.50;1.00;;;;;;5114362;28;20439;-59
2021/10/25 12:05:43;;;;;;;5.73;5.00;;;;;;;;;;5114318;28;20425;-59
2021/10/25 12:08:10;;;;;;;8.63;4.90;;;14.40;1.00;;;;;;5114254;28;20781;-60
2021/10/25 12:10:38;;;;;;;8.27;4.90;;;14.40;1.00;;;;;;5095790;28;20447;-59
2021/10/25 12:13:06;;;;;;;6.93;5.00;;;14.50;1.00;;;;;;5114084;28;20434;-60
2021/10/25 12:15:36;;;;;;;7.33;4.80;;;16.00;1.00;;;;;;5113765;28;20450;-59
2021/10/25 12:18:04;;;;;;;5.80;4.93;;;14.50;1.00;;;;;;5093948;28;20811;-60
2021/10/25 12:20:33;;;;;;;4.87;4.33;;;14.50;1.00;;;;;;5114020;28;20442;-60
2021/10/25 12:22:59;;;;;;;9.93;5.37;;;;;;;;;;5113855;28;20795;-59
2021/10/25 12:25:25;;;;;;;6.33;5.17;;;;;;;;;;5113697;28;20436;-60
2021/10/25 12:27:55;;;;;;;8.67;4.93;;;;;;;;;;5113903;28;20477;-59
2021/10/25 12:30:21;;;;;;;7.60;5.53;;;14.20;1.00;;;;;;5113734;28;20829;-59
2021/10/25 12:33:00;;;;;;;6.33;4.63;;;14.20;1.00;;;;;;5114037;28;20469;-59
2021/10/25 12:35:43;;;;;;;7.60;4.83;;;14.10;1.00;;;;;;5113963;28;20240;-60
2021/10/25 12:38:15;;;;;;;6.67;6.00;;;13.80;1.00;;;;;;5095487;28;20968;-61
2021/10/25 12:40:44;;;;;;;9.40;6.17;;;14.10;1.00;;;;;;5113448;28;20910;-61
2021/10/25 12:43:10;;;;;;;6.80;5.30;;;14.10;1.00;;;;;;5113654;28;20446;-60
2021/10/25 12:45:41;;;;;;;7.47;5.97;;;;;;;;;;5112916;28;20437;-60
2021/10/25 12:48:09;;;;;;;9.60;5.57;;;14.10;1.00;;;;;;5093214;28;21035;-60
2021/10/25 12:50:37;;;;;;;5.60;4.93;;;14.10;1.00;;;;;;5092936;28;20427;-60
2021/10/25 12:53:08;;;;;;;8.47;5.53;;;14.10;1.00;;;;;;5102248;28;20443;-60
2021/10/25 12:55:35;;;;;;;9.67;5.53;;;14.20;1.00;;;;;;5113503;28;20475;-59
2021/10/25 12:58:01;;;;;;;7.37;5.40;;;14.20;1.00;;;;;;5113334;28;20479;-59
2021/10/25 13:00:28;;;;;;;9.70;5.90;;;14.00;1.00;;;;;;5113298;28;20434;-59
2021/10/25 13:02:54;;;;;;;6.03;5.50;;;14.30;1.00;;;;;;5113427;28;20440;-60
2021/10/25 13:05:23;;;;;;;7.10;5.20;;;14.30;1.00;;;;;;5113151;28;20445;-61
2021/10/25 13:07:50;;;;;;;8.43;5.50;;;14.40;1.00;;;;;;5113016;28;20433;-60
2021/10/25 13:10:24;;;;;;;6.97;6.10;;;14.40;1.00;;;;;;5112773;28;20446;-60
2021/10/25 13:12:51;;;;;;;7.20;5.67;;;14.60;1.00;;;;;;5112788;28;20826;-59
2021/10/25 13:15:18;;;;;;;10.87;6.00;;;14.60;1.00;;;;;;5113003;28;20413;-59
2021/10/25 13:17:44;;;;;;;8.07;5.80;;;;;;;;;;5112510;28;20475;-60
2021/10/25 13:20:13;;;;;;;7.83;5.47;;;14.00;1.00;;;;;;5112729;28;20906;-60
2021/10/25 13:22:39;;;;;;;10.20;5.80;;;14.40;1.00;;;;;;5112049;28;20414;-60
2021/10/25 13:25:05;;;;;;;5.90;5.33;;;14.30;1.00;;;;;;5112684;28;20444;-61
2021/10/25 13:27:31;;;;;;;8.03;7.03;;;14.00;1.00;;;;;;5112889;28;20447;-59
2021/10/25 13:29:57;;;;;;;10.33;7.17;;;;;;;;;;5112529;28;20701;-59
2021/10/25 13:32:23;;;;;;;7.90;6.20;;;14.30;1.00;;;;;;5112785;28;20187;-60
2021/10/25 13:34:49;;;;;;;14.20;5.47;;;;;;;;;;5112117;28;20508;-58
2021/10/25 13:37:16;;;;;;;6.90;5.90;;;;;;;;;;5112559;28;20922;-59
2021/10/25 13:39:41;;;;;;;9.70;6.17;;;;;;;;;;5112087;28;20538;-60
2021/10/25 13:42:07;;;;;;;10.70;6.30;;;;;;;;;;5111977;28;20979;-59
2021/10/25 13:44:33;;;;;;;10.27;5.40;;;;;;;;;;5112102;28;20409;-59
2021/10/25 13:46:59;;;;;;;8.53;6.43;;;14.70;1.00;;;;;;5111764;28;20474;-60
2021/10/25 13:49:25;;;;;;;8.40;6.17;;;15.10;1.00;;;;;;5112269;28;20448;-60
2021/10/25 13:51:51;;;;;;;10.83;6.67;;;14.80;1.00;;;;;;5112168;28;20545;-60
2021/10/25 13:54:17;;;;;;;8.77;5.97;;;;;;;;;;5111981;28;20190;-59
2021/10/25 13:56:43;;;;;;;10.33;7.03;;;;;;;;;;5112093;28;20429;-59
2021/10/25 13:59:08;;;;;;;9.47;6.13;;;14.60;1.00;;;;;;5111529;28;20847;-60
2021/10/25 14:01:34;;;;;;;14.33;7.20;;;14.50;1.00;;;;;;5093814;28;20450;-59
2021/10/25 14:04:00;;;;;;;10.53;6.50;;;14.30;1.00;;;;;;5111278;28;20191;-60
2021/10/25 14:06:28;;;;;;;10.03;6.30;;;14.20;1.00;;;;;;5093625;28;20185;-59
2021/10/25 14:08:55;;;;;;;11.50;7.00;;;14.10;1.00;;;;;;5111694;28;20402;-59
2021/10/25 14:11:24;;;;;;;8.40;6.33;;;13.90;1.00;;;;;;5111616;28;20409;-59
2021/10/25 14:18:44;;;;;;;9.40;7.60;;;14.10;1.00;;;;;;5111539;28;20210;-59
2021/10/25 14:21:14;;;;;;;10.00;6.93;;;;;;;;;;5111356;28;20563;-59
2021/10/25 14:23:40;;;;;;;10.73;7.83;;;13.30;1.00;;;;;;5111678;28;20805;-59
2021/10/25 14:26:06;;;;;;;13.20;8.70;;;;;;;;;;5111347;28;20735;-60
2021/10/25 14:28:32;;;;;;;9.63;8.07;;;13.70;1.00;;;;;;5085183;28;20191;-60
2021/10/25 14:30:58;;;;;;;13.83;8.43;;;13.30;1.00;;;;;;5098263;28;20780;-60
2021/10/25 14:33:26;;;;;;;13.20;7.47;;;;;;;;;;5110192;28;20186;-59
2021/10/25 14:35:52;;;;;;;9.23;7.30;;;13.20;1.00;;;;;;5105176;28;20445;-60
2021/10/25 14:39:03;;;;;;;10.87;6.97;;;;;;;;;;5090567;28;20438;-59
2021/10/25 14:41:23;;;;;;;16.43;8.07;;;;;;;;;;5087389;28;20449;-58
2021/10/25 14:43:56;;;;;;;10.37;6.70;;;13.30;1.00;;;;;;5090808;28;20425;-60
2021/10/25 14:46:40;;;;;;;9.27;7.90;;;13.00;1.00;;;;;;5090157;28;20460;-60
2021/10/25 14:54:32;;;;;;;16.47;9.10;;;;;;;;;;5090644;28;20452;-61
2021/10/25 14:56:58;;;;;;;13.00;8.40;;;;;;;;;;5090661;28;20437;-60
2021/10/25 14:59:24;;;;;;;9.43;8.23;;;12.80;1.00;;;;;;5099982;28;20451;-59
2021/10/25 15:01:49;;;;;;;10.60;7.53;;;12.80;1.00;;;;;;5110877;28;20527;-59
2021/10/25 15:04:16;;;;;;;12.60;8.13;;;;;;;;;;5108891;28;20193;-59
2021/10/25 15:06:43;;;;;;;12.50;8.27;;;;;;;;;;5110694;28;20673;-59
2021/10/25 15:09:08;;;;;;;12.50;8.33;;;;;;;;;;5110646;28;20435;-60
2021/10/25 15:11:34;;;;;;;10.60;8.03;;;12.60;1.00;;;;;;5092648;28;20486;-60